Time;durP1;ratioP1;P1;durP2;ratioP2;P2;SDS_P1;SDS_P2;PMS_P1;PMS_P2;Temp;Humidity;BMP_temperature;BMP_pressure;BME280_temperature;BME280_humidity;BME280_pressure;Samples;Min_cycle;Max_cycle;Signal;HPM_P1;HPM_P2
2023/06/20 00:02:02;;;;;;;1.83;1.73;;;25.00;91.90;;;;;;4935903;29;20915;-89
2023/06/20 00:04:29;;;;;;;2.57;2.37;;;25.00;91.80;;;;;;4936140;29;20444;-90
2023/06/20 00:06:57;;;;;;;2.50;2.30;;;25.00;91.70;;;;;;4935911;29;20982;-89
2023/06/20 00:09:24;;;;;;;2.50;2.30;;;25.00;91.90;;;;;;4936263;29;20454;-89
2023/06/20 00:11:51;;;;;;;2.83;2.63;;;25.00;91.80;;;;;;4936043;29;20938;-89
2023/06/20 00:14:17;;;;;;;2.63;2.43;;;25.00;91.80;;;;;;4936005;29;20537;-89
2023/06/20 00:16:44;;;;;;;2.77;2.57;;;25.00;91.80;;;;;;4936088;29;20449;-90
2023/06/20 00:19:11;;;;;;;2.40;2.20;;;25.00;91.60;;;;;;4936123;29;20451;-89
2023/06/20 00:21:39;;;;;;;2.30;2.10;;;25.00;91.60;;;;;;4936003;29;20575;-89
2023/06/20 00:24:09;;;;;;;3.00;2.70;;;25.00;91.80;;;;;;4935927;29;20452;-95
2023/06/20 00:26:37;;;;;;;2.47;2.27;;;25.00;91.70;;;;;;4936661;29;20456;-89
2023/06/20 00:29:04;;;;;;;2.77;2.57;;;25.00;91.80;;;;;;4935911;29;20961;-89
2023/06/20 00:31:31;;;;;;;2.73;2.53;;;25.00;91.80;;;;;;4935712;29;20563;-89
2023/06/20 00:33:58;;;;;;;2.20;2.10;;;25.00;91.90;;;;;;4936171;29;21001;-89
2023/06/20 00:36:26;;;;;;;2.53;2.33;;;25.00;91.90;;;;;;4936080;29;20540;-88
2023/06/20 00:38:53;;;;;;;2.47;2.33;;;25.00;91.90;;;;;;4936203;29;20445;-94
2023/06/20 00:41:21;;;;;;;2.70;2.50;;;25.00;91.80;;;;;;4935938;29;20447;-90
2023/06/20 00:43:48;;;;;;;2.60;2.40;;;25.00;92.00;;;;;;4936040;29;20481;-89
2023/06/20 00:46:19;;;;;;;2.70;2.50;;;25.00;91.90;;;;;;4935672;29;20452;-89
2023/06/20 00:48:47;;;;;;;2.83;2.63;;;25.00;92.00;;;;;;4935609;29;20482;-89
2023/06/20 00:51:14;;;;;;;2.03;1.93;;;25.00;92.00;;;;;;4935551;29;20453;-96
2023/06/20 00:53:43;;;;;;;2.90;2.70;;;25.00;92.00;;;;;;4935642;29;20535;-90
2023/06/20 00:56:11;;;;;;;2.93;2.73;;;25.00;91.80;;;;;;4935599;29;20442;-89
2023/06/20 00:58:39;;;;;;;2.50;2.30;;;25.00;91.80;;;;;;4935508;29;20450;-91
2023/06/20 01:01:06;;;;;;;2.33;2.13;;;25.00;91.80;;;;;;4935721;29;20538;-90
2023/06/20 01:03:35;;;;;;;2.77;2.57;;;25.00;91.70;;;;;;4935743;29;20496;-89
2023/06/20 01:06:27;;;;;;;2.30;2.10;;;25.00;91.90;;;;;;4935750;29;20455;-89
2023/06/20 01:09:01;;;;;;;3.00;2.80;;;25.00;91.90;;;;;;4935895;29;20929;-90
2023/06/20 01:11:35;;;;;;;3.00;2.80;;;25.00;92.00;;;;;;4935667;29;20463;-95
2023/06/20 01:14:12;;;;;;;2.90;2.70;;;25.00;91.90;;;;;;4935731;29;20450;-93
2023/06/20 01:16:44;;;;;;;2.37;2.27;;;25.00;91.90;;;;;;4935850;29;20459;-89
2023/06/20 01:19:21;;;;;;;2.23;2.13;;;25.00;91.90;;;;;;4937173;29;20450;-89
2023/06/20 01:21:54;;;;;;;2.57;2.37;;;25.00;91.90;;;;;;4939185;29;20809;-89
2023/06/20 01:24:29;;;;;;;2.93;2.67;;;25.00;92.00;;;;;;4939338;29;20454;-89
2023/06/20 01:27:02;;;;;;;2.73;2.53;;;25.00;92.00;;;;;;4939216;29;20454;-88
2023/06/20 01:29:34;;;;;;;2.20;2.00;;;25.00;92.00;;;;;;4939057;29;20485;-89
2023/06/20 01:32:04;;;;;;;2.50;2.30;;;25.00;91.90;;;;;;4938947;29;20486;-89
2023/06/20 01:34:33;;;;;;;2.70;2.50;;;25.00;91.90;;;;;;4939524;29;20925;-89
2023/06/20 01:37:02;;;;;;;2.23;2.13;;;25.00;92.10;;;;;;4938930;29;20446;-89
2023/06/20 01:39:42;;;;;;;2.50;2.30;;;25.00;91.80;;;;;;4938476;29;20960;-96
2023/06/20 01:42:11;;;;;;;2.20;2.10;;;25.00;91.90;;;;;;4938452;29;20841;-89
2023/06/20 01:44:41;;;;;;;2.93;2.73;;;25.00;91.80;;;;;;4938572;29;20868;-89
2023/06/20 01:47:11;;;;;;;2.27;2.07;;;25.00;92.00;;;;;;4938502;29;20449;-89
2023/06/20 01:49:39;;;;;;;2.63;2.43;;;25.00;92.00;;;;;;4938116;29;20541;-89
2023/06/20 01:52:07;;;;;;;2.70;2.50;;;25.00;91.90;;;;;;4938113;29;20551;-90
2023/06/20 01:54:37;;;;;;;2.50;2.30;;;25.00;91.90;;;;;;4938258;29;20465;-89
2023/06/20 01:57:05;;;;;;;2.47;2.27;;;25.00;92.00;;;;;;4938142;29;20463;-89
2023/06/20 01:59:33;;;;;;;2.63;2.43;;;25.00;92.00;;;;;;4937894;29;20476;-90
2023/06/20 02:02:01;;;;;;;2.07;1.93;;;25.00;91.90;;;;;;4938149;29;20548;-89
2023/06/20 02:04:28;;;;;;;2.23;2.10;;;25.00;91.90;;;;;;4938099;29;20867;-89
2023/06/20 02:06:57;;;;;;;2.70;2.50;;;25.00;91.90;;;;;;4938243;29;20439;-89
2023/06/20 02:09:25;;;;;;;2.60;2.40;;;25.00;91.80;;;;;;4938028;29;21044;-89
2023/06/20 02:11:54;;;;;;;2.47;2.27;;;25.00;92.00;;;;;;4938050;29;20533;-88
2023/06/20 02:14:22;;;;;;;2.87;2.67;;;25.00;91.90;;;;;;4937876;29;20446;-89
2023/06/20 02:16:50;;;;;;;2.10;2.00;;;25.00;91.90;;;;;;4937656;29;20985;-89
2023/06/20 02:19:17;;;;;;;2.47;2.27;;;25.00;92.00;;;;;;4937904;29;20532;-89
2023/06/20 02:21:46;;;;;;;2.53;2.33;;;25.00;92.00;;;;;;4938043;29;20438;-95
2023/06/20 02:24:19;;;;;;;2.57;2.37;;;25.00;91.80;;;;;;4937910;29;20567;-96
2023/06/20 02:26:47;;;;;;;2.47;2.27;;;25.00;91.90;;;;;;4937633;29;20450;-89
2023/06/20 02:29:16;;;;;;;2.63;2.43;;;25.00;91.70;;;;;;4937334;29;20462;-89
2023/06/20 02:31:47;;;;;;;2.37;2.20;;;25.00;92.30;;;;;;4936624;29;20517;-89
2023/06/20 02:34:20;;;;;;;2.70;2.50;;;25.00;91.70;;;;;;4937771;29;20454;-89
2023/06/20 02:36:48;;;;;;;2.90;2.70;;;25.00;91.90;;;;;;4937712;29;20484;-89
2023/06/20 02:39:15;;;;;;;2.83;2.63;;;25.00;91.70;;;;;;4937633;29;20456;-95
2023/06/20 02:41:42;;;;;;;2.60;2.40;;;25.00;91.70;;;;;;4937587;29;20806;-89
2023/06/20 02:44:09;;;;;;;2.77;2.57;;;25.00;91.80;;;;;;4937351;29;20826;-91
2023/06/20 02:46:46;;;;;;;2.90;2.70;;;25.00;91.90;;;;;;4937328;29;20465;-89
2023/06/20 02:49:20;;;;;;;2.60;2.40;;;25.00;91.90;;;;;;4937586;29;20806;-89
2023/06/20 02:51:57;;;;;;;2.90;2.70;;;25.00;91.80;;;;;;4937318;29;20548;-89
2023/06/20 02:54:30;;;;;;;2.83;2.63;;;25.00;92.00;;;;;;4937329;29;20455;-89
2023/06/20 02:57:00;;;;;;;2.77;2.57;;;25.00;92.00;;;;;;4937259;29;20449;-89
2023/06/20 02:59:29;;;;;;;2.90;2.70;;;25.00;91.90;;;;;;4937139;29;21062;-89
2023/06/20 03:02:01;;;;;;;2.60;2.40;;;25.00;92.00;;;;;;4937150;29;20482;-89
2023/06/20 03:04:32;;;;;;;2.47;2.30;;;25.00;92.00;;;;;;4937198;29;20447;-89
2023/06/20 03:07:01;;;;;;;2.67;2.47;;;25.00;92.10;;;;;;4937029;29;20449;-89
2023/06/20 03:09:29;;;;;;;3.03;2.43;;;25.00;92.00;;;;;;4937007;29;20806;-89
2023/06/20 03:11:57;;;;;;;2.37;2.17;;;25.00;91.90;;;;;;4936874;29;20472;-90
2023/06/20 03:14:24;;;;;;;3.07;2.87;;;25.00;92.00;;;;;;4936834;29;20592;-89
2023/06/20 03:16:50;;;;;;;2.73;2.53;;;25.00;92.00;;;;;;4937054;29;20477;-89
2023/06/20 03:19:19;;;;;;;2.30;2.10;;;25.00;92.00;;;;;;4936885;29;20532;-90
2023/06/20 03:21:45;;;;;;;3.40;2.80;;;25.00;92.30;;;;;;4936751;29;20487;-88
2023/06/20 03:24:12;;;;;;;2.43;2.30;;;25.00;92.40;;;;;;4936888;29;20503;-95
2023/06/20 03:26:40;;;;;;;2.47;2.27;;;25.00;92.00;;;;;;4937334;29;20492;-89
2023/06/20 03:29:07;;;;;;;2.43;2.27;;;25.00;92.00;;;;;;4936684;29;20474;-89
2023/06/20 03:31:34;;;;;;;2.50;2.30;;;25.00;92.00;;;;;;4936313;29;20494;-89
2023/06/20 03:34:01;;;;;;;2.90;2.70;;;25.00;92.00;;;;;;4936446;29;21013;-89
2023/06/20 03:36:29;;;;;;;2.30;2.20;;;25.00;92.10;;;;;;4936438;29;20966;-93
2023/06/20 03:38:56;;;;;;;2.80;2.60;;;25.00;92.00;;;;;;4936559;29;20556;-89
2023/06/20 03:41:23;;;;;;;2.57;2.40;;;25.00;92.00;;;;;;4936210;29;20544;-89
2023/06/20 03:43:49;;;;;;;2.67;2.47;;;25.00;92.00;;;;;;4936171;29;21080;-89
2023/06/20 03:46:16;;;;;;;2.70;2.50;;;25.00;92.00;;;;;;4936398;29;20445;-90
2023/06/20 03:48:43;;;;;;;2.50;2.30;;;25.00;92.00;;;;;;4936495;29;20442;-89
2023/06/20 03:51:10;;;;;;;2.47;2.27;;;25.00;92.00;;;;;;4936484;29;20442;-89
2023/06/20 03:53:38;;;;;;;2.53;2.33;;;25.00;92.00;;;;;;4936619;29;20546;-96
2023/06/20 03:56:05;;;;;;;2.70;2.50;;;25.00;91.80;;;;;;4936515;29;20519;-89
2023/06/20 03:58:32;;;;;;;3.00;2.80;;;25.00;91.90;;;;;;4936679;29;20732;-90
2023/06/20 04:00:59;;;;;;;2.37;2.20;;;25.00;91.90;;;;;;4936258;29;20503;-89
2023/06/20 04:03:26;;;;;;;2.10;2.00;;;25.00;91.90;;;;;;4936133;29;20589;-89
2023/06/20 04:05:52;;;;;;;2.90;2.70;;;25.00;91.80;;;;;;4936434;29;20531;-96
2023/06/20 04:08:19;;;;;;;3.20;3.00;;;25.00;91.90;;;;;;4936448;29;20883;-95
2023/06/20 04:10:47;;;;;;;2.77;2.57;;;25.00;91.70;;;;;;4935922;29;20449;-89
2023/06/20 04:13:14;;;;;;;3.00;2.80;;;25.00;91.80;;;;;;4936453;29;20527;-89
2023/06/20 04:15:41;;;;;;;2.70;2.50;;;25.00;92.00;;;;;;4936188;29;21023;-93
2023/06/20 04:18:08;;;;;;;2.90;2.70;;;25.00;91.90;;;;;;4936646;29;20488;-95
2023/06/20 04:20:35;;;;;;;2.80;2.60;;;25.00;91.90;;;;;;4937272;29;20448;-94
2023/06/20 04:23:02;;;;;;;2.80;2.50;;;25.00;91.90;;;;;;4937936;29;20481;-96
2023/06/20 04:25:28;;;;;;;2.67;2.47;;;25.00;91.70;;;;;;4937451;29;20929;-96
2023/06/20 04:27:57;;;;;;;2.60;2.40;;;25.00;92.20;;;;;;4936007;29;21027;-89
2023/06/20 04:30:24;;;;;;;2.50;2.30;;;25.00;91.90;;;;;;4935657;29;20482;-89
2023/06/20 04:32:53;;;;;;;2.50;2.40;;;25.00;92.10;;;;;;4936023;29;20487;-90
2023/06/20 04:35:20;;;;;;;2.70;2.50;;;25.00;91.90;;;;;;4935638;29;20445;-89
2023/06/20 04:37:51;;;;;;;2.67;2.47;;;25.00;91.90;;;;;;4936102;29;20443;-89
2023/06/20 04:40:19;;;;;;;2.83;2.63;;;25.00;91.90;;;;;;4936158;29;20444;-90
2023/06/20 04:42:46;;;;;;;2.33;2.20;;;25.00;91.90;;;;;;4936081;29;20866;-89
2023/06/20 04:45:14;;;;;;;2.17;2.07;;;25.00;92.00;;;;;;4935879;29;20454;-89
2023/06/20 04:47:42;;;;;;;2.97;2.77;;;25.00;91.90;;;;;;4935976;29;20543;-89
2023/06/20 04:50:09;;;;;;;2.87;2.67;;;25.00;91.80;;;;;;4935717;29;20459;-91
2023/06/20 04:52:36;;;;;;;2.63;2.43;;;25.00;91.90;;;;;;4935796;29;20975;-89
2023/06/20 04:55:04;;;;;;;2.23;2.03;;;25.00;91.90;;;;;;4938875;29;20448;-89
2023/06/20 04:57:31;;;;;;;2.53;2.33;;;25.00;92.00;;;;;;4939572;29;20449;-89
2023/06/20 04:59:58;;;;;;;2.23;2.03;;;25.00;91.90;;;;;;4939663;29;20552;-89
2023/06/20 05:02:27;;;;;;;2.70;2.50;;;25.00;91.90;;;;;;4939282;29;20924;-89
2023/06/20 05:04:54;;;;;;;2.23;2.03;;;25.00;91.80;;;;;;4940282;29;20495;-89
2023/06/20 05:07:22;;;;;;;2.73;2.53;;;25.00;92.30;;;;;;4939520;29;20451;-92
2023/06/20 05:09:49;;;;;;;2.30;2.10;;;25.00;91.90;;;;;;4939402;29;20830;-96
2023/06/20 05:12:16;;;;;;;2.43;2.23;;;25.00;92.00;;;;;;4939222;29;20516;-90
2023/06/20 05:14:43;;;;;;;2.93;2.73;;;25.00;92.00;;;;;;4938977;29;21033;-90
2023/06/20 05:17:10;;;;;;;2.70;2.50;;;25.00;92.00;;;;;;4939186;29;20447;-89
2023/06/20 05:19:38;;;;;;;2.57;2.47;;;25.00;92.00;;;;;;4938903;29;20452;-89
2023/06/20 05:22:05;;;;;;;2.77;2.53;;;25.00;91.80;;;;;;4939384;29;20544;-89
2023/06/20 05:24:32;;;;;;;2.70;2.50;;;25.00;91.70;;;;;;4939009;29;20512;-90
2023/06/20 05:26:59;;;;;;;2.80;2.60;;;25.00;91.90;;;;;;4939466;29;20449;-89
2023/06/20 05:29:26;;;;;;;2.57;2.37;;;25.00;91.80;;;;;;4939233;29;20557;-96
2023/06/20 05:31:52;;;;;;;2.53;2.33;;;25.00;91.80;;;;;;4938920;29;20480;-89
2023/06/20 05:34:19;;;;;;;2.30;2.10;;;25.00;92.20;;;;;;4939050;29;20450;-89
2023/06/20 05:36:47;;;;;;;2.70;2.50;;;25.00;91.90;;;;;;4938918;29;20537;-89
2023/06/20 05:39:14;;;;;;;2.27;2.17;;;25.00;91.90;;;;;;4939601;29;20539;-91
2023/06/20 05:41:42;;;;;;;2.30;2.10;;;25.00;92.00;;;;;;4938840;29;20528;-90
2023/06/20 05:44:09;;;;;;;3.20;2.90;;;25.00;92.00;;;;;;4939017;29;20553;-89
2023/06/20 05:46:36;;;;;;;2.77;2.57;;;25.00;91.90;;;;;;4939595;29;20454;-90
2023/06/20 05:49:03;;;;;;;2.17;2.07;;;25.00;91.90;;;;;;4939997;29;20805;-96
2023/06/20 05:51:30;;;;;;;2.27;2.17;;;25.00;91.90;;;;;;4938436;29;20446;-89
2023/06/20 05:53:58;;;;;;;2.80;2.60;;;25.00;91.90;;;;;;4939452;29;20531;-90
2023/06/20 05:56:25;;;;;;;2.60;2.50;;;25.00;91.70;;;;;;4939125;29;20545;-89
2023/06/20 05:58:52;;;;;;;2.90;2.70;;;25.00;91.90;;;;;;4939038;29;20560;-89
2023/06/20 06:01:19;;;;;;;2.40;2.20;;;25.00;91.90;;;;;;4938591;29;20450;-96
2023/06/20 06:03:47;;;;;;;2.77;2.57;;;25.00;91.80;;;;;;4938609;29;20579;-89
2023/06/20 06:06:14;;;;;;;2.70;2.50;;;25.00;91.90;;;;;;4939626;29;20862;-95
2023/06/20 06:08:41;;;;;;;2.10;2.00;;;25.00;91.90;;;;;;4939015;29;20525;-90
2023/06/20 06:11:10;;;;;;;2.10;2.00;;;25.00;91.90;;;;;;4938301;29;20504;-89
2023/06/20 06:13:38;;;;;;;2.70;2.50;;;25.00;91.90;;;;;;4939088;29;20446;-89
2023/06/20 06:16:05;;;;;;;2.47;2.30;;;25.00;91.90;;;;;;4938374;29;20445;-89
2023/06/20 06:18:32;;;;;;;2.77;2.57;;;25.00;91.90;;;;;;4938202;29;20438;-90
2023/06/20 06:20:59;;;;;;;1.90;1.80;;;25.00;91.90;;;;;;4938603;29;20528;-90
2023/06/20 06:23:26;;;;;;;2.30;2.10;;;25.00;91.80;;;;;;4938467;29;20476;-96
2023/06/20 06:25:53;;;;;;;2.70;2.50;;;25.00;91.80;;;;;;4938708;29;20447;-90
2023/06/20 06:28:23;;;;;;;2.53;2.33;;;25.00;91.80;;;;;;4938198;29;20508;-96
2023/06/20 06:30:50;;;;;;;1.93;1.83;;;25.00;91.80;;;;;;4938025;29;20828;-90
2023/06/20 06:33:19;;;;;;;2.83;2.63;;;25.00;91.80;;;;;;4938204;29;20453;-89
2023/06/20 06:35:46;;;;;;;2.70;2.50;;;25.00;92.00;;;;;;4938403;29;20481;-95
2023/06/20 06:38:14;;;;;;;2.40;2.20;;;25.00;92.00;;;;;;4938083;29;20945;-89
2023/06/20 06:40:43;;;;;;;2.10;2.00;;;25.00;92.10;;;;;;4938411;29;20543;-96
2023/06/20 06:43:10;;;;;;;2.17;2.07;;;25.00;91.90;;;;;;4937942;29;20451;-93
2023/06/20 06:45:38;;;;;;;2.57;2.37;;;25.00;91.90;;;;;;4937859;29;20956;-89
2023/06/20 06:48:05;;;;;;;2.50;2.30;;;25.00;91.90;;;;;;4938139;29;20452;-89
2023/06/20 06:50:32;;;;;;;2.60;2.40;;;25.00;91.90;;;;;;4937734;29;20532;-89
2023/06/20 06:52:59;;;;;;;2.57;2.37;;;25.00;91.90;;;;;;4937510;29;20446;-90
2023/06/20 06:55:26;;;;;;;2.33;2.13;;;25.00;92.00;;;;;;4937330;29;20462;-89
2023/06/20 06:57:53;;;;;;;2.57;2.37;;;25.00;91.80;;;;;;4937871;29;20881;-89
2023/06/20 07:00:21;;;;;;;2.57;2.37;;;25.00;91.90;;;;;;4937078;29;20554;-89
2023/06/20 07:02:49;;;;;;;2.43;2.23;;;25.00;92.00;;;;;;4937511;29;20504;-89
2023/06/20 07:05:16;;;;;;;2.60;2.40;;;25.00;92.00;;;;;;4937546;29;20583;-96
2023/06/20 07:07:43;;;;;;;2.77;2.57;;;25.00;92.00;;;;;;4937889;29;20546;-96
2023/06/20 07:10:10;;;;;;;2.53;2.33;;;25.00;91.80;;;;;;4937425;29;20450;-96
2023/06/20 07:12:37;;;;;;;2.10;2.00;;;25.00;91.90;;;;;;4937495;29;20460;-89
2023/06/20 07:15:04;;;;;;;2.70;2.50;;;25.00;91.90;;;;;;4937819;29;20441;-89
2023/06/20 07:17:31;;;;;;;3.10;2.80;;;25.00;91.90;;;;;;4935812;29;20457;-90
2023/06/20 07:19:59;;;;;;;2.20;2.10;;;25.00;91.80;;;;;;4936998;29;20496;-90
2023/06/20 07:22:26;;;;;;;1.70;1.60;;;25.00;91.90;;;;;;4937065;29;20539;-89
2023/06/20 07:24:54;;;;;;;2.07;1.93;;;25.00;92.00;;;;;;4937395;29;20495;-90
2023/06/20 07:27:20;;;;;;;2.70;2.50;;;25.00;92.10;;;;;;4937150;29;20484;-89
2023/06/20 07:29:47;;;;;;;2.23;2.03;;;25.00;92.00;;;;;;4937233;29;20481;-90
2023/06/20 07:32:15;;;;;;;2.40;2.20;;;25.00;92.00;;;;;;4937551;29;20489;-96
2023/06/20 07:34:42;;;;;;;2.20;2.10;;;25.00;92.00;;;;;;4937512;29;20453;-89
2023/06/20 07:37:10;;;;;;;2.37;2.23;;;25.00;92.00;;;;;;4937167;29;20449;-89
2023/06/20 07:39:40;;;;;;;2.73;2.53;;;25.00;92.20;;;;;;4936990;29;20504;-90
2023/06/20 07:42:07;;;;;;;2.63;2.43;;;25.00;92.20;;;;;;4937551;29;20453;-89
2023/06/20 07:44:34;;;;;;;2.10;2.00;;;25.00;92.20;;;;;;4936955;29;20497;-89
2023/06/20 07:47:01;;;;;;;2.43;2.23;;;25.00;92.40;;;;;;4936860;29;20473;-90
2023/06/20 07:49:28;;;;;;;2.40;2.20;;;25.00;92.30;;;;;;4936580;29;20458;-89
2023/06/20 07:51:54;;;;;;;2.37;2.20;;;25.00;92.10;;;;;;4937807;29;20450;-90
2023/06/20 07:54:23;;;;;;;1.80;1.70;;;25.00;92.10;;;;;;4936917;29;20442;-96
2023/06/20 07:56:50;;;;;;;2.20;2.10;;;25.00;92.10;;;;;;4937191;29;20544;-96
2023/06/20 07:59:17;;;;;;;2.63;2.43;;;25.00;92.50;;;;;;4936660;29;20565;-89
2023/06/20 08:01:44;;;;;;;2.57;2.37;;;25.00;92.20;;;;;;4936566;29;20482;-96
2023/06/20 08:04:11;;;;;;;2.60;2.40;;;25.00;92.20;;;;;;4936831;29;20481;-89
2023/06/20 08:06:38;;;;;;;3.07;2.77;;;25.00;92.20;;;;;;4936538;29;20459;-95
2023/06/20 08:09:05;;;;;;;2.53;2.33;;;25.00;92.10;;;;;;4937554;29;20458;-90
2023/06/20 08:11:34;;;;;;;2.47;2.27;;;25.10;92.00;;;;;;4936981;29;20479;-89
2023/06/20 08:14:01;;;;;;;2.67;2.47;;;25.10;92.20;;;;;;4936807;29;20438;-89
2023/06/20 08:16:28;;;;;;;2.50;2.30;;;25.10;92.00;;;;;;4936558;29;20446;-90
2023/06/20 08:18:54;;;;;;;2.10;2.00;;;25.10;92.10;;;;;;4936346;29;20489;-96
2023/06/20 08:21:21;;;;;;;2.67;2.47;;;25.00;92.00;;;;;;4936814;29;20525;-90
2023/06/20 08:23:48;;;;;;;2.67;2.47;;;25.10;92.10;;;;;;4936946;29;21024;-90
2023/06/20 08:26:15;;;;;;;1.97;1.87;;;25.10;92.00;;;;;;4936288;29;20513;-90
2023/06/20 08:28:43;;;;;;;2.93;2.73;;;25.10;92.20;;;;;;4939141;29;20550;-89
2023/06/20 08:31:10;;;;;;;2.40;2.20;;;25.10;92.20;;;;;;4939825;29;20578;-95
2023/06/20 08:33:37;;;;;;;2.20;2.00;;;25.10;92.20;;;;;;4939986;29;20461;-96
2023/06/20 08:36:04;;;;;;;2.40;2.20;;;25.10;92.20;;;;;;4940172;29;20457;-89
2023/06/20 08:38:31;;;;;;;2.47;2.30;;;25.10;92.20;;;;;;4940103;29;20543;-89
2023/06/20 08:40:58;;;;;;;2.63;2.37;;;25.10;92.20;;;;;;4940234;29;20542;-90
2023/06/20 08:43:24;;;;;;;2.37;2.27;;;25.10;92.30;;;;;;4940442;29;20445;-90
2023/06/20 08:45:55;;;;;;;2.07;1.97;;;25.10;92.00;;;;;;4939765;29;20533;-96
2023/06/20 08:48:23;;;;;;;2.03;1.93;;;25.10;92.00;;;;;;4939963;29;20526;-89
2023/06/20 08:50:51;;;;;;;2.30;2.10;;;25.10;92.10;;;;;;4939996;29;20889;-96
2023/06/20 08:53:19;;;;;;;2.13;1.93;;;25.10;92.10;;;;;;4939965;29;20530;-90
2023/06/20 08:55:46;;;;;;;2.30;2.20;;;25.10;92.20;;;;;;4939709;29;20829;-96
2023/06/20 08:58:13;;;;;;;2.47;2.27;;;25.10;92.20;;;;;;4939747;29;20453;-90
2023/06/20 09:00:40;;;;;;;2.17;2.07;;;25.10;92.10;;;;;;4939610;29;20470;-90
2023/06/20 09:03:08;;;;;;;2.17;2.07;;;25.10;92.10;;;;;;4939595;29;20967;-90
2023/06/20 09:05:41;;;;;;;2.70;2.50;;;25.10;92.20;;;;;;4939600;29;20486;-90
2023/06/20 09:08:08;;;;;;;2.27;2.13;;;25.10;92.00;;;;;;4939524;29;20454;-90
2023/06/20 09:10:36;;;;;;;1.90;1.80;;;25.10;92.00;;;;;;4939441;29;20453;-89
2023/06/20 09:13:06;;;;;;;2.00;1.90;;;25.10;92.00;;;;;;4939509;29;20453;-91
2023/06/20 09:15:34;;;;;;;2.17;1.97;;;25.10;92.00;;;;;;4939476;29;20494;-96
2023/06/20 09:18:02;;;;;;;2.50;2.30;;;25.10;92.50;;;;;;4939284;29;20827;-89
2023/06/20 09:20:32;;;;;;;1.90;1.80;;;25.10;92.10;;;;;;4939447;29;20471;-96
2023/06/20 09:22:59;;;;;;;2.80;2.60;;;25.20;92.10;;;;;;4922860;29;20524;-90
2023/06/20 09:25:27;;;;;;;2.00;1.90;;;25.20;92.10;;;;;;4939227;29;20499;-89
2023/06/20 09:27:56;;;;;;;2.00;1.90;;;25.20;92.10;;;;;;4939014;29;20544;-90
2023/06/20 09:30:23;;;;;;;1.87;1.77;;;25.20;92.10;;;;;;4938639;29;20494;-90
2023/06/20 09:32:50;;;;;;;2.20;2.00;;;25.20;91.90;;;;;;4939131;29;20799;-96
2023/06/20 09:35:17;;;;;;;2.67;2.47;;;25.20;92.30;;;;;;4939074;29;20499;-91
2023/06/20 09:37:47;;;;;;;2.60;2.40;;;25.20;92.10;;;;;;4939113;29;20441;-90
2023/06/20 09:40:15;;;;;;;2.30;2.10;;;25.20;92.20;;;;;;4938258;29;20502;-90
2023/06/20 09:42:43;;;;;;;1.87;1.77;;;25.20;92.10;;;;;;4938817;29;20951;-90
2023/06/20 09:45:11;;;;;;;2.33;2.13;;;25.20;92.20;;;;;;4938775;29;20596;-90
2023/06/20 09:47:40;;;;;;;2.20;2.00;;;25.20;92.40;;;;;;4938943;29;20448;-89
2023/06/20 09:50:08;;;;;;;2.43;2.23;;;25.20;92.30;;;;;;4938911;29;20448;-89
2023/06/20 09:52:40;;;;;;;2.20;2.00;;;25.20;92.20;;;;;;4938661;29;20450;-90
2023/06/20 09:55:11;;;;;;;2.10;2.00;;;25.20;92.30;;;;;;4938691;29;20809;-89
2023/06/20 09:57:41;;;;;;;2.77;2.57;;;25.20;92.40;;;;;;4938863;29;20453;-88
2023/06/20 10:00:14;;;;;;;2.10;1.90;;;25.10;92.40;;;;;;4938723;29;20485;-89
2023/06/20 10:02:45;;;;;;;2.17;2.07;;;25.20;92.30;;;;;;4939021;29;20519;-88
2023/06/20 10:05:16;;;;;;;2.50;2.30;;;25.20;92.30;;;;;;4947276;28;20528;-88
2023/06/20 10:07:45;;;;;;;2.10;2.00;;;25.20;92.20;;;;;;4963047;28;20515;-91
2023/06/20 10:10:15;;;;;;;1.90;1.80;;;25.20;92.20;;;;;;4962949;28;20434;-88
2023/06/20 10:12:43;;;;;;;2.13;2.03;;;25.20;92.20;;;;;;4947578;28;20478;-89
2023/06/20 10:15:13;;;;;;;1.90;1.80;;;25.20;92.30;;;;;;4938320;29;20456;-89
2023/06/20 10:17:41;;;;;;;1.87;1.77;;;25.20;92.40;;;;;;4938130;29;20951;-89
2023/06/20 10:20:20;;;;;;;2.70;2.20;;;25.20;92.30;;;;;;4938324;29;20533;-89
2023/06/20 10:22:49;;;;;;;2.00;1.80;;;25.20;92.00;;;;;;4938459;29;20463;-90
2023/06/20 10:25:20;;;;;;;2.00;1.90;;;25.20;92.10;;;;;;4937997;29;20490;-90
2023/06/20 10:27:56;;;;;;;2.03;1.93;;;25.20;92.20;;;;;;4937965;29;20964;-90
2023/06/20 10:31:00;;;;;;;2.00;1.90;;;25.20;92.20;;;;;;4937947;29;20495;-96
2023/06/20 10:33:28;;;;;;;2.20;2.10;;;25.20;92.40;;;;;;4931301;29;20446;-89
2023/06/20 10:35:56;;;;;;;2.20;2.10;;;25.20;92.50;;;;;;4937935;29;20540;-90
2023/06/20 10:38:23;;;;;;;2.43;2.23;;;25.20;92.50;;;;;;4938104;29;20932;-96
2023/06/20 10:41:10;;;;;;;2.20;2.00;;;25.20;92.60;;;;;;4938133;29;20866;-94
2023/06/20 10:43:55;;;;;;;2.00;1.90;;;25.20;92.60;;;;;;4937980;29;20444;-93
2023/06/20 10:46:23;;;;;;;2.03;1.93;;;25.20;92.50;;;;;;4937240;29;20485;-94
2023/06/20 10:48:50;;;;;;;1.80;1.70;;;25.20;92.50;;;;;;4938124;29;20452;-94
2023/06/20 10:51:17;;;;;;;1.80;1.70;;;25.20;92.50;;;;;;4937042;29;20458;-89
2023/06/20 10:53:44;;;;;;;2.10;2.00;;;25.20;92.50;;;;;;4937680;29;20451;-89
2023/06/20 10:56:27;;;;;;;2.00;1.90;;;25.20;92.70;;;;;;4937954;29;20473;-89
2023/06/20 10:58:53;;;;;;;1.70;1.60;;;25.20;92.60;;;;;;4937823;29;20480;-95
2023/06/20 11:01:25;;;;;;;1.90;1.80;;;25.20;92.50;;;;;;4937620;29;20449;-89
2023/06/20 11:03:53;;;;;;;2.33;2.17;;;25.20;92.60;;;;;;4937663;29;20970;-95
2023/06/20 11:06:20;;;;;;;2.23;2.13;;;25.20;92.40;;;;;;4937481;29;20892;-90
2023/06/20 11:08:47;;;;;;;2.17;2.07;;;25.20;92.50;;;;;;4937439;29;20895;-94
2023/06/20 11:11:13;;;;;;;2.40;2.20;;;25.20;92.40;;;;;;4937370;29;20478;-94
2023/06/20 11:13:51;;;;;;;2.90;2.70;;;25.20;92.50;;;;;;5108063;27;1305870;-91
2023/06/20 11:16:19;;;;;;;2.20;2.10;;;25.20;92.60;;;;;;5132190;28;20279;-94
2023/06/20 11:18:46;;;;;;;1.93;1.83;;;25.20;92.30;;;;;;5131792;28;20438;-94
2023/06/20 11:21:15;;;;;;;2.00;1.90;;;25.30;92.40;;;;;;5132018;28;20430;-89
2023/06/20 11:23:42;;;;;;;2.37;2.17;;;25.20;92.40;;;;;;5132138;28;20863;-89
2023/06/20 11:26:09;;;;;;;1.90;1.80;;;25.20;92.40;;;;;;5131908;28;20496;-89
2023/06/20 11:28:36;;;;;;;1.80;1.70;;;25.30;92.50;;;;;;5128057;28;20489;-94
2023/06/20 11:31:11;;;;;;;2.33;2.20;;;25.30;92.40;;;;;;5111303;28;20450;-89
2023/06/20 11:33:38;;;;;;;1.80;1.70;;;25.30;92.40;;;;;;5111354;28;20481;-89
2023/06/20 11:36:06;;;;;;;2.20;2.00;;;25.30;92.30;;;;;;5111190;28;20446;-88
2023/06/20 11:38:36;;;;;;;2.27;2.07;;;25.30;92.40;;;;;;5111075;28;20470;-91
2023/06/20 11:41:04;;;;;;;1.93;1.83;;;25.30;92.50;;;;;;5111230;28;20531;-91
2023/06/20 11:43:37;;;;;;;2.00;1.90;;;25.30;92.70;;;;;;5111033;28;20443;-96
2023/06/20 11:46:04;;;;;;;2.13;1.93;;;25.30;92.50;;;;;;5111049;28;20486;-91
2023/06/20 11:48:33;;;;;;;2.03;1.83;;;25.30;92.40;;;;;;5110997;28;21002;-92
2023/06/20 11:51:01;;;;;;;1.63;1.53;;;25.30;92.90;;;;;;5111002;28;20444;-90
2023/06/20 11:53:31;;;;;;;1.97;1.87;;;25.30;92.60;;;;;;5110844;28;20489;-90
2023/06/20 11:56:02;;;;;;;1.90;1.80;;;25.30;92.50;;;;;;5110960;28;20449;-90
2023/06/20 11:58:29;;;;;;;2.00;1.90;;;25.30;92.40;;;;;;5110676;28;20537;-90
2023/06/20 12:01:07;;;;;;;2.00;1.90;;;25.30;92.40;;;;;;5111098;28;20441;-91
2023/06/20 12:03:36;;;;;;;1.70;1.60;;;25.30;92.40;;;;;;5110566;28;20439;-96
2023/06/20 12:06:21;;;;;;;2.80;2.10;;;25.30;92.30;;;;;;5110642;28;20431;-91
2023/06/20 12:08:54;;;;;;;2.10;1.90;;;25.30;92.40;;;;;;5110592;28;20946;-96
2023/06/20 12:11:21;;;;;;;2.03;1.90;;;25.30;92.40;;;;;;5110731;28;20429;-96
2023/06/20 12:13:48;;;;;;;1.80;1.70;;;25.30;92.40;;;;;;5110185;28;20492;-91
2023/06/20 12:16:15;;;;;;;2.23;2.13;;;25.30;92.40;;;;;;5110666;28;20443;-88
2023/06/20 12:18:44;;;;;;;1.90;1.80;;;25.30;92.40;;;;;;5110216;28;21002;-90
2023/06/20 12:21:10;;;;;;;2.00;1.80;;;25.30;92.70;;;;;;5110278;28;20528;-91
2023/06/20 12:23:37;;;;;;;2.10;2.00;;;25.30;92.40;;;;;;5105714;28;20463;-96
2023/06/20 12:26:04;;;;;;;1.90;1.80;;;25.30;92.50;;;;;;5096935;28;20534;-91
2023/06/20 12:28:32;;;;;;;1.70;1.60;;;25.30;92.30;;;;;;5096620;28;20472;-91
2023/06/20 12:30:59;;;;;;;2.20;2.10;;;25.30;92.30;;;;;;5096468;28;20448;-91
2023/06/20 12:33:26;;;;;;;1.97;1.87;;;25.30;92.30;;;;;;5096396;28;20485;-91
2023/06/20 12:35:54;;;;;;;1.87;1.77;;;25.30;92.40;;;;;;5096560;28;20934;-91
2023/06/20 12:38:21;;;;;;;2.80;2.60;;;25.40;92.50;;;;;;5096478;28;20440;-91
2023/06/20 12:40:49;;;;;;;2.07;1.90;;;25.30;92.30;;;;;;5096467;28;20531;-91
2023/06/20 12:43:15;;;;;;;1.67;1.50;;;25.40;92.40;;;;;;5096354;28;20440;-96
2023/06/20 12:45:43;;;;;;;1.70;1.60;;;25.40;92.30;;;;;;5096097;28;20522;-90
2023/06/20 12:48:09;;;;;;;2.00;1.83;;;25.40;92.40;;;;;;5096171;28;20458;-93
2023/06/20 12:50:36;;;;;;;2.10;1.97;;;25.40;92.20;;;;;;5096338;28;20443;-90
2023/06/20 12:53:04;;;;;;;2.00;1.80;;;25.40;92.20;;;;;;5096061;28;21081;-89
2023/06/20 12:55:32;;;;;;;1.87;1.77;;;25.40;92.40;;;;;;5096172;28;20475;-94